Time;durP1;ratioP1;P1;durP2;ratioP2;P2;SDS_P1;SDS_P2;PMS_P1;PMS_P2;Temp;Humidity;BMP_temperature;BMP_pressure;BME280_temperature;BME280_humidity;BME280_pressure;Samples;Min_cycle;Max_cycle;Signal;HPM_P1;HPM_P2
2023/03/21 00:01:58;;;;;;;8.90;6.60;;;10.50;99.90;;;;;;5011156;28;20458;-71
2023/03/21 00:04:27;;;;;;;8.27;6.33;;;10.50;99.90;;;;;;5011536;28;20441;-70
2023/03/21 00:06:57;;;;;;;9.43;6.67;;;10.50;99.90;;;;;;5013070;28;20454;-72
2023/03/21 00:09:31;;;;;;;7.63;5.97;;;10.50;99.90;;;;;;5012965;28;20478;-72
2023/03/21 00:12:00;;;;;;;8.70;5.90;;;10.50;99.90;;;;;;5025882;28;20451;-71
2023/03/21 00:14:29;;;;;;;10.90;7.60;;;10.50;99.90;;;;;;5032130;28;20449;-72
2023/03/21 00:16:56;;;;;;;12.20;7.20;;;10.50;99.90;;;;;;5032468;28;20491;-71
2023/03/21 00:19:27;;;;;;;8.83;6.73;;;10.50;99.90;;;;;;5015108;28;20535;-71
2023/03/21 00:21:55;;;;;;;9.50;6.43;;;10.50;99.90;;;;;;5030626;28;20472;-70
2023/03/21 00:24:39;;;;;;;8.23;7.43;;;10.50;99.90;;;;;;5033046;28;20876;-70
2023/03/21 00:27:14;;;;;;;11.43;7.70;;;10.50;99.90;;;;;;5031310;28;20507;-71
2023/03/21 00:29:43;;;;;;;9.20;7.07;;;10.50;99.90;;;;;;5014802;28;20622;-71
2023/03/21 00:32:11;;;;;;;9.37;6.93;;;10.40;99.90;;;;;;5008399;28;20990;-72
2023/03/21 00:34:38;;;;;;;9.67;7.90;;;10.40;99.90;;;;;;4996581;28;20472;-71
2023/03/21 00:37:07;;;;;;;8.60;6.87;;;10.40;99.90;;;;;;5013597;28;20461;-73
2023/03/21 00:39:36;;;;;;;11.13;7.63;;;10.40;99.90;;;;;;5012548;28;20535;-72
2023/03/21 00:42:08;;;;;;;11.37;8.30;;;10.40;99.90;;;;;;5011581;28;20465;-71
2023/03/21 00:44:35;;;;;;;10.30;7.70;;;10.40;99.90;;;;;;5013379;28;20430;-72
2023/03/21 00:47:04;;;;;;;13.03;7.90;;;10.50;99.90;;;;;;5013228;28;20431;-71
2023/03/21 00:49:37;;;;;;;16.87;8.53;;;10.50;99.90;;;;;;4995912;28;21233;-73
2023/03/21 00:52:07;;;;;;;11.73;7.47;;;10.50;99.90;;;;;;4994108;28;20507;-71
2023/03/21 00:54:42;;;;;;;9.53;7.70;;;10.50;99.90;;;;;;4993698;28;20509;-72
2023/03/21 00:57:10;;;;;;;8.70;6.83;;;10.50;99.90;;;;;;4994428;28;20469;-73
2023/03/21 00:59:37;;;;;;;9.60;7.40;;;10.40;99.90;;;;;;4992684;28;20493;-72
2023/03/21 01:02:06;;;;;;;13.00;7.50;;;10.40;99.90;;;;;;4992318;28;20553;-74
2023/03/21 01:04:37;;;;;;;10.50;8.30;;;10.50;99.90;;;;;;4993863;28;20438;-70
2023/03/21 01:07:13;;;;;;;16.23;9.20;;;10.50;99.90;;;;;;4993766;28;20873;-71
2023/03/21 01:09:40;;;;;;;16.67;9.03;;;10.50;99.90;;;;;;4989544;28;20477;-70
2023/03/21 01:12:07;;;;;;;15.10;9.67;;;10.50;99.90;;;;;;5005173;28;20465;-70
2023/03/21 01:14:36;;;;;;;11.20;8.30;;;10.40;99.90;;;;;;4995294;28;20448;-70
2023/03/21 01:17:04;;;;;;;11.33;7.80;;;10.40;99.90;;;;;;5012797;28;20480;-70
2023/03/21 01:19:34;;;;;;;15.73;9.77;;;10.30;99.90;;;;;;5012266;28;20473;-70
2023/03/21 01:22:01;;;;;;;12.40;8.33;;;10.30;99.90;;;;;;4992527;28;20450;-72
2023/03/21 01:24:30;;;;;;;14.67;9.07;;;10.30;99.90;;;;;;4992178;28;20529;-73
2023/03/21 01:26:58;;;;;;;13.10;8.90;;;10.30;99.90;;;;;;4993612;28;20442;-71
2023/03/21 01:29:27;;;;;;;14.23;8.80;;;10.30;99.90;;;;;;4993885;28;20462;-69
2023/03/21 01:31:55;;;;;;;11.27;8.57;;;10.30;99.90;;;;;;4992644;28;20886;-70
2023/03/21 01:34:25;;;;;;;16.47;9.90;;;10.20;99.90;;;;;;4996904;28;20874;-70
2023/03/21 01:36:57;;;;;;;17.87;9.90;;;10.20;99.90;;;;;;5013666;28;20556;-72
2023/03/21 01:39:25;;;;;;;14.33;9.10;;;10.20;99.90;;;;;;5012486;28;20839;-72
2023/03/21 01:41:52;;;;;;;17.47;9.27;;;10.10;99.90;;;;;;5006343;28;20479;-69
2023/03/21 01:44:21;;;;;;;15.13;10.93;;;10.10;99.90;;;;;;5012192;28;20957;-73
2023/03/21 01:46:52;;;;;;;17.40;11.67;;;10.10;99.90;;;;;;5013014;28;20487;-72
2023/03/21 01:49:24;;;;;;;16.43;11.23;;;10.10;99.90;;;;;;5012483;28;20546;-73
2023/03/21 01:51:56;;;;;;;17.20;12.03;;;10.00;99.90;;;;;;4982025;28;20566;-72
2023/03/21 01:54:25;;;;;;;16.77;11.50;;;10.00;99.90;;;;;;5007527;28;20896;-72
2023/03/21 01:56:56;;;;;;;19.83;11.67;;;10.00;99.90;;;;;;5012498;28;20922;-73
2023/03/21 01:59:29;;;;;;;14.43;11.23;;;9.90;99.90;;;;;;5012247;28;20917;-73
2023/03/21 02:02:08;;;;;;;21.57;12.93;;;9.90;99.90;;;;;;5002349;28;20529;-72
2023/03/21 02:04:38;;;;;;;23.70;12.50;;;9.90;99.90;;;;;;4993482;28;20497;-73
2023/03/21 02:07:10;;;;;;;23.90;12.37;;;9.80;99.90;;;;;;4993015;28;20480;-71
2023/03/21 02:09:39;;;;;;;21.20;14.87;;;9.80;99.90;;;;;;4991182;28;20482;-73
2023/03/21 02:12:07;;;;;;;21.13;14.10;;;9.80;99.90;;;;;;4991644;28;20533;-73
2023/03/21 02:14:37;;;;;;;19.43;14.00;;;9.80;99.90;;;;;;5006105;28;20507;-71
2023/03/21 02:17:15;;;;;;;20.97;13.03;;;9.80;99.90;;;;;;5012732;28;20465;-72
2023/03/21 02:20:13;;;;;;;21.17;12.70;;;9.90;99.90;;;;;;5011209;28;20473;-72
2023/03/21 02:23:00;;;;;;;20.27;13.53;;;9.80;99.90;;;;;;5018447;28;20449;-70
2023/03/21 02:25:44;;;;;;;21.70;14.80;;;9.70;99.90;;;;;;5013110;28;20900;-70
2023/03/21 02:28:17;;;;;;;23.90;16.17;;;9.70;99.90;;;;;;5012689;28;20461;-70
2023/03/21 02:31:15;;;;;;;20.10;14.80;;;9.60;99.90;;;;;;4984274;28;20878;-70
2023/03/21 02:34:15;;;;;;;26.87;16.47;;;9.60;99.90;;;;;;4993367;28;20446;-70
2023/03/21 02:37:10;;;;;;;24.93;15.13;;;9.60;99.90;;;;;;5002247;28;20550;-70
2023/03/21 02:39:53;;;;;;;27.40;15.27;;;9.50;99.90;;;;;;5012878;28;20500;-71
2023/03/21 02:42:27;;;;;;;24.60;15.10;;;9.50;99.90;;;;;;4996941;28;20540;-72
2023/03/21 02:45:00;;;;;;;21.27;13.57;;;9.50;99.90;;;;;;4997358;28;20499;-69
2023/03/21 02:47:32;;;;;;;18.27;13.20;;;9.50;99.90;;;;;;4996640;28;20480;-69
2023/03/21 02:50:10;;;;;;;25.07;15.80;;;9.50;99.90;;;;;;4999136;28;20504;-69
2023/03/21 02:52:41;;;;;;;22.80;13.30;;;9.50;99.90;;;;;;5003293;28;20854;-70
2023/03/21 02:55:12;;;;;;;24.83;14.67;;;9.40;99.90;;;;;;4997184;28;20433;-69
2023/03/21 02:57:42;;;;;;;22.93;13.70;;;9.40;99.90;;;;;;4996912;28;20496;-71
2023/03/21 03:00:12;;;;;;;26.50;15.07;;;9.40;99.90;;;;;;4995493;28;20450;-70
2023/03/21 03:02:40;;;;;;;22.70;13.80;;;9.40;99.90;;;;;;4979228;28;20895;-72
2023/03/21 03:05:15;;;;;;;26.23;15.30;;;9.40;99.90;;;;;;4994683;28;20978;-71
2023/03/21 03:08:08;;;;;;;21.43;15.37;;;9.50;99.90;;;;;;4995715;28;20492;-70
2023/03/21 03:10:50;;;;;;;23.27;15.07;;;9.50;99.90;;;;;;5014285;28;20504;-72
2023/03/21 03:13:31;;;;;;;24.30;14.27;;;9.50;99.90;;;;;;5011725;28;20809;-71
2023/03/21 03:16:08;;;;;;;23.63;13.20;;;9.60;99.90;;;;;;5015992;28;20465;-72
2023/03/21 03:18:49;;;;;;;27.03;13.93;;;9.50;99.90;;;;;;4998169;28;20492;-73
2023/03/21 03:21:20;;;;;;;25.77;13.83;;;9.50;99.90;;;;;;5011745;28;20488;-71
2023/03/21 03:23:55;;;;;;;22.50;13.70;;;9.50;99.90;;;;;;5014875;28;20418;-70
2023/03/21 03:26:28;;;;;;;26.00;14.70;;;9.50;99.90;;;;;;5016908;28;20480;-70
2023/03/21 03:28:59;;;;;;;25.57;14.73;;;9.50;99.90;;;;;;5015887;28;20544;-70
2023/03/21 03:31:29;;;;;;;24.70;13.73;;;9.40;99.90;;;;;;4993187;28;20479;-72
2023/03/21 03:34:01;;;;;;;28.93;14.37;;;9.40;99.90;;;;;;4989726;28;20484;-71
2023/03/21 03:36:34;;;;;;;32.57;13.90;;;9.50;99.90;;;;;;5014261;28;20442;-72
2023/03/21 03:39:10;;;;;;;21.93;14.30;;;9.50;99.90;;;;;;4997833;28;20564;-71
2023/03/21 03:41:44;;;;;;;25.77;13.83;;;9.40;99.90;;;;;;5000682;28;20583;-71
2023/03/21 03:44:12;;;;;;;24.23;13.87;;;9.40;99.90;;;;;;5009926;28;20436;-71
2023/03/21 03:46:47;;;;;;;26.93;16.07;;;9.40;99.90;;;;;;5014664;28;20507;-72
2023/03/21 03:49:21;;;;;;;23.47;13.87;;;9.40;99.90;;;;;;5002894;28;20658;-71
2023/03/21 03:51:54;;;;;;;21.40;14.47;;;9.40;99.90;;;;;;5002299;28;20454;-70
2023/03/21 03:54:26;;;;;;;30.40;14.23;;;9.40;99.90;;;;;;5021038;28;20503;-71
2023/03/21 03:56:54;;;;;;;26.43;15.37;;;9.40;99.90;;;;;;5005220;28;20473;-71
2023/03/21 03:59:23;;;;;;;31.00;15.07;;;9.40;99.90;;;;;;5014980;28;20495;-70
2023/03/21 04:01:51;;;;;;;20.93;13.60;;;9.40;99.90;;;;;;4995017;28;20811;-70
2023/03/21 04:04:21;;;;;;;24.40;16.33;;;9.30;99.90;;;;;;5001474;28;20545;-71
2023/03/21 04:06:50;;;;;;;21.70;14.80;;;9.30;99.90;;;;;;5015937;28;20936;-69
2023/03/21 04:09:17;;;;;;;24.93;14.43;;;9.40;99.90;;;;;;5015488;28;20930;-70
2023/03/21 04:11:48;;;;;;;22.83;13.83;;;9.50;99.90;;;;;;4996286;28;20497;-70
2023/03/21 04:14:15;;;;;;;28.80;15.50;;;9.50;99.90;;;;;;5007520;28;20909;-70
2023/03/21 04:16:42;;;;;;;23.53;14.57;;;9.50;99.90;;;;;;5016740;28;20497;-71
2023/03/21 04:19:10;;;;;;;23.97;14.67;;;9.50;99.90;;;;;;5016623;28;20549;-70
2023/03/21 04:21:38;;;;;;;20.73;13.90;;;9.50;99.90;;;;;;4979634;28;20489;-72
2023/03/21 04:24:06;;;;;;;24.00;14.13;;;9.50;99.90;;;;;;4996867;28;20457;-69
2023/03/21 04:26:35;;;;;;;23.50;15.07;;;9.50;99.90;;;;;;4996745;28;20446;-70
2023/03/21 04:29:04;;;;;;;23.67;13.90;;;9.50;99.90;;;;;;4996829;28;20462;-70
2023/03/21 04:31:33;;;;;;;23.80;13.23;;;9.50;99.90;;;;;;4995414;28;20472;-69
2023/03/21 04:34:01;;;;;;;30.90;14.43;;;9.50;99.90;;;;;;4996187;28;20445;-69
2023/03/21 04:36:29;;;;;;;36.50;15.33;;;9.50;99.90;;;;;;4978713;28;20586;-69
2023/03/21 04:39:00;;;;;;;24.23;14.57;;;9.50;99.90;;;;;;4995093;28;20486;-69
2023/03/21 04:41:30;;;;;;;25.73;15.30;;;9.60;99.90;;;;;;4998327;28;20453;-70
2023/03/21 04:43:56;;;;;;;29.50;15.80;;;9.60;99.90;;;;;;5004087;28;20489;-69
2023/03/21 04:46:25;;;;;;;21.83;13.47;;;9.60;99.90;;;;;;5015530;28;20520;-70
2023/03/21 04:48:52;;;;;;;24.67;13.27;;;9.60;99.90;;;;;;5015758;28;20497;-70
2023/03/21 04:51:19;;;;;;;26.27;12.83;;;9.50;99.90;;;;;;5010100;28;20492;-71
2023/03/21 04:53:48;;;;;;;24.00;14.50;;;9.60;99.90;;;;;;4996853;28;20446;-71
2023/03/21 04:56:15;;;;;;;23.27;14.30;;;9.50;99.90;;;;;;4996089;28;20431;-71
2023/03/21 04:58:43;;;;;;;23.57;14.50;;;9.50;99.90;;;;;;4995361;28;20481;-70
2023/03/21 05:01:13;;;;;;;23.73;14.80;;;9.50;99.90;;;;;;4995547;28;20493;-70
2023/03/21 05:03:41;;;;;;;20.20;12.50;;;9.50;99.90;;;;;;4996757;28;20787;-70
2023/03/21 05:06:09;;;;;;;27.73;15.23;;;9.50;99.90;;;;;;4997660;28;20505;-70
2023/03/21 05:08:44;;;;;;;26.57;14.83;;;9.40;99.90;;;;;;4996473;28;20466;-70
2023/03/21 05:11:11;;;;;;;24.33;13.90;;;9.50;99.90;;;;;;4997478;28;20433;-71
2023/03/21 05:13:38;;;;;;;24.23;14.50;;;8.90;99.90;;;;;;5003777;28;20445;-71
2023/03/21 05:16:07;;;;;;;28.77;14.13;;;9.40;99.90;;;;;;5017350;28;20881;-70
2023/03/21 05:18:37;;;;;;;22.57;13.50;;;9.40;99.90;;;;;;5014257;28;20526;-71
2023/03/21 05:21:09;;;;;;;27.60;15.70;;;9.40;99.90;;;;;;5015334;28;20484;-71
2023/03/21 05:23:38;;;;;;;24.60;13.77;;;9.40;99.90;;;;;;5016074;28;20496;-71
2023/03/21 05:26:06;;;;;;;20.87;12.23;;;9.30;99.90;;;;;;5022838;28;20441;-71
2023/03/21 05:28:41;;;;;;;31.53;13.73;;;9.40;99.90;;;;;;5030601;28;20993;-70
2023/03/21 05:31:14;;;;;;;21.53;13.50;;;9.40;99.90;;;;;;5008863;28;20442;-70
2023/03/21 05:33:41;;;;;;;24.33;12.57;;;9.40;99.90;;;;;;5000551;28;20988;-71
2023/03/21 05:36:15;;;;;;;27.23;14.47;;;9.40;99.90;;;;;;4994764;28;20474;-71
2023/03/21 05:38:44;;;;;;;22.03;11.90;;;9.40;99.90;;;;;;5003147;28;20572;-70
2023/03/21 05:41:12;;;;;;;28.17;14.03;;;9.40;99.90;;;;;;5002222;28;20690;-72
2023/03/21 05:43:40;;;;;;;32.77;14.70;;;9.40;99.90;;;;;;5005512;28;20525;-72
2023/03/21 05:46:08;;;;;;;24.60;12.60;;;9.40;99.90;;;;;;5014901;28;20484;-69
2023/03/21 05:48:38;;;;;;;22.90;14.10;;;9.40;99.90;;;;;;5015266;28;20503;-69
2023/03/21 05:51:11;;;;;;;30.20;14.63;;;9.40;99.90;;;;;;5014290;28;20434;-70
2023/03/21 05:53:44;;;;;;;26.00;14.30;;;9.40;99.90;;;;;;5013243;28;20425;-70
2023/03/21 05:56:12;;;;;;;30.37;15.20;;;9.40;99.90;;;;;;5013674;28;20473;-69
2023/03/21 05:58:40;;;;;;;27.77;14.00;;;9.50;99.90;;;;;;5013457;28;20551;-71
2023/03/21 06:01:09;;;;;;;21.67;15.07;;;9.50;99.90;;;;;;5014000;28;20865;-69
2023/03/21 06:03:36;;;;;;;23.13;13.77;;;9.50;99.90;;;;;;5012144;28;20445;-70
2023/03/21 06:06:06;;;;;;;24.43;14.93;;;9.60;99.90;;;;;;5013208;28;20540;-69
2023/03/21 06:08:33;;;;;;;23.33;14.50;;;9.60;99.90;;;;;;5016025;28;20721;-70
2023/03/21 06:11:04;;;;;;;23.80;15.00;;;9.60;99.90;;;;;;5020023;28;20445;-70
2023/03/21 06:13:31;;;;;;;19.97;12.63;;;9.70;99.90;;;;;;5001885;28;20527;-70
2023/03/21 06:16:00;;;;;;;29.63;15.40;;;9.70;99.90;;;;;;5017911;28;20453;-69
2023/03/21 06:18:27;;;;;;;30.03;14.90;;;9.70;99.90;;;;;;5004423;28;20907;-71
2023/03/21 06:20:55;;;;;;;29.60;15.77;;;9.70;99.90;;;;;;5016656;28;20484;-69
2023/03/21 06:23:22;;;;;;;37.03;15.80;;;9.70;99.90;;;;;;5012728;28;20537;-71
2023/03/21 06:25:52;;;;;;;30.53;14.57;;;9.70;99.90;;;;;;5019753;28;20983;-71
2023/03/21 06:28:20;;;;;;;25.10;14.20;;;9.60;99.90;;;;;;5020117;28;20496;-70
2023/03/21 06:30:48;;;;;;;24.97;15.03;;;9.60;99.90;;;;;;5019532;28;20427;-69
2023/03/21 06:33:16;;;;;;;23.57;12.93;;;9.60;99.90;;;;;;4997717;28;20519;-70
2023/03/21 06:39:06;;;;;;;27.80;13.70;;;9.70;99.90;;;;;;5003858;28;20896;-70
2023/03/21 06:44:57;;;;;;;28.67;13.70;;;9.70;99.90;;;;;;5004400;28;20428;-69
2023/03/21 06:50:50;;;;;;;28.77;14.60;;;9.60;99.90;;;;;;5003690;28;20473;-70
2023/03/21 06:56:40;;;;;;;24.27;14.30;;;9.60;99.90;;;;;;5004507;28;20409;-71
2023/03/21 07:02:30;;;;;;;63.77;25.33;;;9.70;99.90;;;;;;5004023;28;20385;-69
2023/03/21 07:12:00;;;;;;;28.63;14.67;;;9.60;99.90;;;;;;5004083;28;20429;-69
2023/03/21 07:17:50;;;;;;;26.33;14.33;;;9.60;99.90;;;;;;5003680;28;20814;-67
2023/03/21 07:23:39;;;;;;;28.87;15.70;;;9.70;99.90;;;;;;5000919;28;20914;-68
2023/03/21 07:29:27;;;;;;;33.57;15.33;;;9.50;99.90;;;;;;5018341;28;20556;-69
2023/03/21 07:35:18;;;;;;;35.83;16.07;;;9.60;99.90;;;;;;5002486;28;20422;-68
2023/03/21 07:41:09;;;;;;;26.50;15.53;;;9.70;99.90;;;;;;5002998;28;20750;-67
2023/03/21 07:46:58;;;;;;;32.93;15.43;;;9.80;99.90;;;;;;5018725;28;20485;-68
2023/03/21 07:52:48;;;;;;;27.40;14.73;;;9.80;99.90;;;;;;5017959;28;20405;-67
2023/03/21 07:58:38;;;;;;;31.10;14.63;;;9.80;99.90;;;;;;5016882;28;20472;-69
2023/03/21 08:04:27;;;;;;;27.53;14.07;;;9.90;99.90;;;;;;5012299;28;20467;-68
2023/03/21 08:14:32;;;;;;;34.40;17.00;;;9.90;99.90;;;;;;5016903;28;20420;-68
2023/03/21 08:20:23;;;;;;;27.33;14.30;;;10.00;99.90;;;;;;5020689;28;20428;-66
2023/03/21 08:22:50;;;;;;;28.00;15.10;;;10.00;99.90;;;;;;5018686;28;20421;-69
2023/03/21 08:25:21;;;;;;;26.97;13.30;;;10.00;99.90;;;;;;5017693;28;20456;-70
2023/03/21 08:27:49;;;;;;;32.30;15.53;;;10.10;99.90;;;;;;5017308;28;20435;-70
2023/03/21 08:30:17;;;;;;;32.83;14.27;;;10.20;99.90;;;;;;5018334;28;20430;-67
2023/03/21 08:32:45;;;;;;;21.73;13.70;;;10.20;99.90;;;;;;5017930;28;20588;-69
2023/03/21 08:35:14;;;;;;;34.67;14.53;;;10.20;99.90;;;;;;5018938;28;20519;-67
2023/03/21 08:37:45;;;;;;;24.77;13.50;;;10.20;99.90;;;;;;5017466;28;20531;-67
2023/03/21 08:40:15;;;;;;;30.93;16.50;;;10.20;99.90;;;;;;5017436;28;20949;-68
2023/03/21 08:42:43;;;;;;;26.40;14.03;;;10.20;99.90;;;;;;5017225;28;20453;-68
2023/03/21 08:45:12;;;;;;;29.40;15.43;;;10.20;99.90;;;;;;5017030;28;20504;-67
2023/03/21 08:47:40;;;;;;;31.73;16.50;;;10.20;99.90;;;;;;5016071;28;20889;-68
2023/03/21 08:50:11;;;;;;;28.63;14.70;;;10.20;99.90;;;;;;5016282;28;20988;-68
2023/03/21 08:52:39;;;;;;;28.83;14.93;;;10.20;99.90;;;;;;5015671;28;20461;-67
2023/03/21 08:55:13;;;;;;;30.93;13.80;;;10.20;99.90;;;;;;5015445;28;20442;-68
2023/03/21 08:57:41;;;;;;;26.40;14.60;;;10.30;99.90;;;;;;4997841;28;20445;-69
2023/03/21 09:00:13;;;;;;;24.10;12.93;;;10.30;99.90;;;;;;5014656;28;20644;-71
2023/03/21 09:02:40;;;;;;;33.77;16.20;;;10.30;99.90;;;;;;5015491;28;20448;-69
2023/03/21 09:05:10;;;;;;;27.13;14.10;;;10.30;99.90;;;;;;5016147;28;20468;-68
2023/03/21 09:07:40;;;;;;;29.00;15.60;;;10.30;99.90;;;;;;5014781;28;20453;-68
2023/03/21 09:10:12;;;;;;;27.13;14.50;;;10.30;99.90;;;;;;5014750;28;20465;-69
2023/03/21 09:12:39;;;;;;;28.33;15.00;;;10.40;99.90;;;;;;5015626;28;20433;-68
2023/03/21 09:15:10;;;;;;;25.53;13.30;;;10.40;99.90;;;;;;5015542;28;20422;-68
2023/03/21 09:17:42;;;;;;;30.20;15.90;;;10.30;99.90;;;;;;5014277;28;20484;-69
2023/03/21 09:20:17;;;;;;;20.80;13.23;;;10.40;99.90;;;;;;5015535;28;20831;-68
2023/03/21 09:22:47;;;;;;;26.00;14.83;;;10.40;99.90;;;;;;5014914;28;20428;-68
2023/03/21 09:25:16;;;;;;;21.67;13.33;;;10.50;99.90;;;;;;5013491;28;20449;-67
2023/03/21 09:27:45;;;;;;;39.93;15.33;;;10.50;99.90;;;;;;5014680;28;20833;-68
2023/03/21 09:30:15;;;;;;;27.67;13.87;;;10.60;99.90;;;;;;5015105;28;21022;-68
2023/03/21 09:32:47;;;;;;;32.73;14.30;;;10.60;99.90;;;;;;5015074;28;20826;-67
2023/03/21 09:35:15;;;;;;;28.73;13.37;;;10.70;99.90;;;;;;5014728;28;20492;-69
2023/03/21 09:37:46;;;;;;;23.53;13.17;;;10.80;99.90;;;;;;5014806;28;20936;-67
2023/03/21 09:40:21;;;;;;;24.20;11.50;;;10.80;99.90;;;;;;5013583;28;20477;-69
2023/03/21 09:43:01;;;;;;;24.30;12.03;;;10.90;99.90;;;;;;5014406;28;20507;-68
2023/03/21 09:45:36;;;;;;;23.63;13.53;;;10.90;99.90;;;;;;5014760;28;20484;-67
2023/03/21 09:48:06;;;;;;;31.30;13.63;;;10.90;99.90;;;;;;5014101;28;20550;-67
2023/03/21 09:50:37;;;;;;;27.87;14.53;;;10.90;99.90;;;;;;5014504;28;20532;-67
2023/03/21 09:53:09;;;;;;;24.90;14.37;;;10.90;99.90;;;;;;5014598;28;20425;-68
2023/03/21 09:55:41;;;;;;;30.10;13.60;;;11.00;99.90;;;;;;5014125;28;20440;-68
2023/03/21 09:58:27;;;;;;;23.37;13.10;;;11.00;99.90;;;;;;5012702;28;20476;-68
2023/03/21 10:01:01;;;;;;;24.13;13.33;;;11.10;99.90;;;;;;5014250;28;20557;-69
2023/03/21 10:03:33;;;;;;;24.40;13.07;;;11.20;99.90;;;;;;5013531;28;20641;-69
2023/03/21 10:06:07;;;;;;;25.07;13.20;;;11.20;99.90;;;;;;4996988;28;20499;-69
2023/03/21 10:08:37;;;;;;;26.37;13.07;;;11.30;99.90;;;;;;5014308;28;20906;-68
2023/03/21 10:11:12;;;;;;;25.80;14.30;;;11.30;99.90;;;;;;5011953;28;20913;-67
2023/03/21 10:13:42;;;;;;;20.20;12.27;;;11.40;99.90;;;;;;4994593;28;20470;-68
2023/03/21 10:16:14;;;;;;;31.30;15.80;;;11.50;99.90;;;;;;5007847;28;20460;-67
2023/03/21 10:18:45;;;;;;;29.90;14.90;;;11.60;99.90;;;;;;5013510;28;20496;-69
2023/03/21 10:21:20;;;;;;;21.53;12.77;;;11.60;99.90;;;;;;5014236;28;20436;-67
2023/03/21 10:23:47;;;;;;;20.80;12.70;;;11.60;99.90;;;;;;5013989;28;20464;-68
2023/03/21 10:26:16;;;;;;;26.17;15.23;;;11.60;99.90;;;;;;5013244;28;20503;-67
2023/03/21 10:28:46;;;;;;;24.20;14.17;;;11.70;99.90;;;;;;5012423;28;20505;-67
2023/03/21 10:31:18;;;;;;;28.63;13.50;;;11.70;99.90;;;;;;4995929;28;20477;-67
2023/03/21 10:33:49;;;;;;;25.40;15.30;;;11.70;99.90;;;;;;5013110;28;20476;-67
2023/03/21 10:36:21;;;;;;;22.67;13.97;;;11.70;99.90;;;;;;5013593;28;20433;-67
2023/03/21 10:38:52;;;;;;;31.37;16.17;;;11.80;99.90;;;;;;5013587;28;20563;-67
2023/03/21 10:41:21;;;;;;;19.60;11.97;;;11.70;99.90;;;;;;5013377;28;20445;-67
2023/03/21 10:44:05;;;;;;;30.53;14.60;;;11.80;99.90;;;;;;5013163;28;20457;-68
2023/03/21 10:46:35;;;;;;;25.10;13.67;;;11.70;99.90;;;;;;5013553;28;20440;-68
2023/03/21 10:49:07;;;;;;;18.33;11.93;;;11.70;99.90;;;;;;5013167;28;20527;-67
2023/03/21 10:51:37;;;;;;;31.43;17.53;;;11.70;99.90;;;;;;5013579;28;20511;-68
2023/03/21 10:54:10;;;;;;;26.30;13.83;;;11.70;99.90;;;;;;5013383;28;20436;-67
2023/03/21 10:56:45;;;;;;;19.67;11.23;;;11.80;99.90;;;;;;5016819;28;20447;-68
2023/03/21 10:59:19;;;;;;;30.30;13.53;;;11.90;99.90;;;;;;5017174;28;20836;-68
2023/03/21 11:01:54;;;;;;;26.53;14.00;;;11.90;99.90;;;;;;5016999;28;20820;-67
2023/03/21 11:04:24;;;;;;;19.80;10.80;;;11.90;99.90;;;;;;5019172;28;20868;-69
2023/03/21 11:06:54;;;;;;;24.23;12.10;;;11.90;99.90;;;;;;5020929;28;20437;-68
2023/03/21 11:09:24;;;;;;;20.00;11.27;;;11.90;99.90;;;;;;5020255;28;20799;-68
2023/03/21 11:11:57;;;;;;;21.37;12.70;;;12.00;99.90;;;;;;5021679;28;20556;-68
2023/03/21 11:14:35;;;;;;;24.37;13.20;;;12.00;99.90;;;;;;5022057;28;20487;-67
2023/03/21 11:17:07;;;;;;;23.53;13.53;;;12.00;99.90;;;;;;5021023;28;20437;-67
2023/03/21 11:19:36;;;;;;;18.80;11.70;;;12.00;99.90;;;;;;5017922;28;20620;-67
2023/03/21 11:22:06;;;;;;;23.17;12.73;;;12.00;99.90;;;;;;5016810;28;20461;-68
2023/03/21 11:24:35;;;;;;;23.53;12.70;;;12.00;99.90;;;;;;5017201;28;20442;-69
2023/03/21 11:27:08;;;;;;;21.07;12.60;;;11.90;99.90;;;;;;5015980;28;20434;-68
2023/03/21 11:29:39;;;;;;;17.20;12.90;;;11.90;99.90;;;;;;5016313;28;20508;-68
2023/03/21 11:32:12;;;;;;;25.23;11.33;;;11.80;99.90;;;;;;5016985;28;20853;-68
2023/03/21 11:34:46;;;;;;;20.90;12.50;;;11.80;99.90;;;;;;5016317;28;20501;-68
2023/03/21 11:37:21;;;;;;;19.00;10.57;;;11.90;99.90;;;;;;5016914;28;20456;-68
2023/03/21 11:39:48;;;;;;;20.37;10.93;;;11.90;99.90;;;;;;5016382;28;20488;-70
2023/03/21 11:42:29;;;;;;;19.37;10.50;;;12.00;99.90;;;;;;5015868;28;20449;-68
2023/03/21 11:45:02;;;;;;;20.53;11.60;;;12.10;99.90;;;;;;5016233;28;21023;-68
2023/03/21 11:47:30;;;;;;;16.90;9.50;;;12.10;99.90;;;;;;5016293;28;20866;-68
2023/03/21 11:49:57;;;;;;;20.53;12.90;;;12.20;99.90;;;;;;5015790;28;20469;-68
2023/03/21 11:52:34;;;;;;;17.10;10.83;;;12.20;99.90;;;;;;5016401;28;20530;-68
2023/03/21 11:55:27;;;;;;;18.50;11.53;;;12.30;99.90;;;;;;5015949;28;20461;-69
2023/03/21 11:58:11;;;;;;;22.50;10.90;;;12.30;99.90;;;;;;5015612;28;20555;-68
2023/03/21 12:00:50;;;;;;;17.60;10.47;;;12.30;99.90;;;;;;5009836;28;20513;-69
2023/03/21 12:03:56;;;;;;;17.83;9.80;;;12.40;99.90;;;;;;4996187;28;20501;-68
2023/03/21 12:06:30;;;;;;;16.97;9.10;;;12.50;99.90;;;;;;4995497;28;20442;-68
2023/03/21 12:09:11;;;;;;;21.73;10.93;;;12.50;99.90;;;;;;4995649;28;20473;-67
2023/03/21 12:11:51;;;;;;;23.03;13.13;;;12.60;99.90;;;;;;5012253;28;20480;-69
2023/03/21 12:14:28;;;;;;;18.47;10.90;;;12.70;99.90;;;;;;5015331;28;20430;-68
2023/03/21 12:17:07;;;;;;;20.00;12.77;;;12.80;99.90;;;;;;5014725;28;20507;-70
2023/03/21 12:19:51;;;;;;;17.70;10.20;;;12.90;99.90;;;;;;5015333;28;20901;-68
2023/03/21 12:22:29;;;;;;;15.60;10.00;;;13.00;99.90;;;;;;5014943;28;20633;-67
2023/03/21 12:24:57;;;;;;;17.00;10.37;;;12.90;99.90;;;;;;5015499;28;20503;-67
2023/03/21 12:27:37;;;;;;;16.47;9.67;;;12.80;99.90;;;;;;5014268;28;20715;-68
2023/03/21 12:30:23;;;;;;;15.30;10.03;;;12.80;99.90;;;;;;5014795;28;20457;-68
2023/03/21 12:33:12;;;;;;;19.63;10.13;;;12.80;99.90;;;;;;5014346;28;20449;-66
2023/03/21 12:36:09;;;;;;;21.80;9.93;;;12.80;99.90;;;;;;5015392;28;20433;-67
2023/03/21 12:38:43;;;;;;;20.50;11.43;;;12.80;99.90;;;;;;5014040;28;20523;-68
2023/03/21 12:41:24;;;;;;;17.00;10.60;;;12.80;99.90;;;;;;5014690;28;20543;-69
2023/03/21 12:43:56;;;;;;;19.70;10.77;;;12.80;99.90;;;;;;5014563;28;20434;-67
2023/03/21 12:46:29;;;;;;;15.73;11.10;;;12.80;99.90;;;;;;5014743;28;20520;-67
2023/03/21 12:49:05;;;;;;;19.80;10.00;;;12.80;99.90;;;;;;5013101;28;20466;-69
2023/03/21 12:51:36;;;;;;;25.17;12.00;;;12.70;99.90;;;;;;5014849;28;20798;-68
2023/03/21 12:54:14;;;;;;;17.50;10.53;;;12.80;99.90;;;;;;5012875;28;20445;-67
2023/03/21 12:56:51;;;;;;;28.67;10.57;;;12.80;99.90;;;;;;5013844;28;20488;-67
2023/03/21 12:59:29;;;;;;;16.30;10.83;;;12.70;99.90;;;;;;5013851;28;20493;-67
2023/03/21 13:02:05;;;;;;;17.53;10.77;;;12.70;99.90;;;;;;5014164;28;20439;-68
2023/03/21 13:04:43;;;;;;;16.77;10.20;;;12.60;99.90;;;;;;5012830;28;20496;-68
2023/03/21 13:07:21;;;;;;;15.30;9.67;;;12.70;99.90;;;;;;5014189;28;20445;-68
2023/03/21 13:09:48;;;;;;;23.87;10.77;;;12.80;99.90;;;;;;5003414;28;20493;-68
2023/03/21 13:12:44;;;;;;;22.93;13.30;;;12.80;99.90;;;;;;4994431;28;20536;-67
2023/03/21 13:15:36;;;;;;;25.90;10.67;;;12.90;99.90;;;;;;4994781;28;20850;-68
2023/03/21 13:18:16;;;;;;;13.40;8.10;;;13.00;99.90;;;;;;4993987;28;20474;-68
2023/03/21 13:20:47;;;;;;;13.00;7.43;;;13.00;99.90;;;;;;4994031;28;20529;-68
2023/03/21 13:23:17;;;;;;;15.53;9.23;;;13.00;99.90;;;;;;4994321;28;20427;-68
2023/03/21 13:25:50;;;;;;;14.40;8.93;;;12.90;99.90;;;;;;4994508;28;20501;-68
2023/03/21 13:28:21;;;;;;;12.80;8.40;;;13.00;99.90;;;;;;4993739;28;20468;-68
2023/03/21 13:30:49;;;;;;;16.10;8.03;;;13.00;99.90;;;;;;4994679;28;20454;-67
2023/03/21 13:33:22;;;;;;;14.50;7.87;;;13.00;99.90;;;;;;4994200;28;21018;-68
2023/03/21 13:36:04;;;;;;;11.67;7.50;;;13.00;99.90;;;;;;4977100;28;20504;-68
2023/03/21 13:38:34;;;;;;;12.17;7.50;;;13.00;99.90;;;;;;4993936;28;20481;-67
2023/03/21 13:41:06;;;;;;;10.50;6.90;;;13.10;99.90;;;;;;4994182;28;20497;-68
2023/03/21 13:43:45;;;;;;;12.03;8.00;;;13.00;99.90;;;;;;4994341;28;20430;-67
2023/03/21 13:46:13;;;;;;;11.63;7.03;;;13.00;99.90;;;;;;4994161;28;20442;-67
2023/03/21 13:49:01;;;;;;;20.40;7.40;;;13.00;99.90;;;;;;4993793;28;20565;-68
2023/03/21 13:51:46;;;;;;;11.60;8.77;;;13.10;99.90;;;;;;4993986;28;20841;-69
2023/03/21 13:54:29;;;;;;;11.83;8.10;;;13.10;99.90;;;;;;4994091;28;20801;-68
2023/03/21 13:56:58;;;;;;;11.00;6.40;;;13.00;99.90;;;;;;4993503;28;20565;-67
2023/03/21 13:59:43;;;;;;;15.63;8.10;;;13.10;99.90;;;;;;4994243;28;20695;-68
2023/03/21 14:02:29;;;;;;;12.63;8.40;;;13.00;99.90;;;;;;4994339;28;20461;-66
2023/03/21 14:05:02;;;;;;;10.77;7.77;;;12.90;99.90;;;;;;4994147;28;20462;-68